Sunday, December 17, 2017, 10:19 PM EST
Back to Local

KBTP, Butler, Butler County Airport/k W Scholter Field

Location: Renfrew, PA, United States Lat: 40.783
Local Time: 10:19 PM EST ( 3:19 GMT) Lon: -79.95
Time Zone: US/Eastern Elev: 1246 ft

Show me the last for .
Show Decoded

2017-12-17 21:56 METAR KBTP 180256Z AUTO 18004KT 9SM BKN075 OVC090 02/01 A3009 RMK AO2 SLP207
                 60000 T00220011 56003 FZRANO =
2017-12-17 20:56 METAR KBTP 180156Z AUTO 25003KT 9SM BKN050 BKN060 OVC070 02/01 A3010 RMK AO2
                 UPE04B39E55 SLP211 P0000 T00220011 FZRANO =
2017-12-17 19:56 METAR KBTP 180056Z AUTO 17008KT 10SM UP OVC045 02/01 A3009 RMK AO2
                 UPE35B54RAB35E54 SLP207 P0000 T00220011 FZRANO =
2017-12-17 18:56 METAR KBTP 172356Z AUTO 18006KT 10SM UP SCT049 BKN055 OVC080 02/01 A3010 RMK AO2
                 RAE52UPB52 SLP212 P0000 60000 T00220006 10039 20022 58008 FZRANO =
2017-12-17 17:56 METAR KBTP 172256Z AUTO 20006KT 10SM -RA SCT048 OVC070 03/M01 A3012 RMK AO2
                 RAB44 SLP218 P0000 T00331011 =
2017-12-17 16:56 METAR KBTP 172156Z AUTO 18004KT 10SM SCT100 03/M02 A3013 RMK AO2 SLP221
                 T00331017 =
2017-12-17 15:56 METAR KBTP 172056Z AUTO 18005KT 10SM BKN090 03/M02 A3012 RMK AO2 SLP220
                 T00331017 55006 =
2017-12-17 14:56 METAR KBTP 171956Z AUTO 14003KT 10SM SCT100 SCT120 03/M02 A3010 RMK AO2 SLP211
                 T00331022 =
2017-12-17 13:56 METAR KBTP 171856Z AUTO 15003KT 10SM CLR 03/M02 A3011 RMK AO2 SLP215 T00331022 =
2017-12-17 12:56 METAR KBTP 171756Z AUTO 16003KT 10SM CLR 03/M02 A3014 RMK AO2 SLP228 T00331022
                 10033 21039 58022 =
2017-12-17 11:56 METAR KBTP 171656Z AUTO 16004KT 10SM CLR 02/M02 A3017 RMK AO2 SLP237 T00221022
                 FZRANO =
2017-12-17 10:56 METAR KBTP 171556Z AUTO 16004KT 10SM CLR 02/M03 A3020 RMK AO2 SLP248 T00171028
                 FZRANO =
2017-12-17 09:56 METAR KBTP 171456Z AUTO 00000KT 10SM CLR 01/M03 A3021 RMK AO2 SLP252 T00111028
                 53007 FZRANO TSNO =
2017-12-17 08:56 METAR KBTP 171356Z AUTO 00000KT 10SM CLR M02/M03 A3019 RMK AO2 SLP245 T10221028
                 FZRANO =
2017-12-17 07:56 METAR KBTP 171256Z AUTO 00000KT 10SM CLR M03/M05 A3018 RMK AO2 SLP243 T10331050
                 FZRANO =
2017-12-17 06:56 METAR KBTP 171156Z AUTO 00000KT 10SM CLR M03/M04 A3019 RMK AO2 SLP244 T10331039
                 11022 21061 53010 FZRANO =
2017-12-17 05:56 METAR KBTP 171056Z AUTO 00000KT 10SM CLR M03/M04 A3017 RMK AO2 SLP236 T10281039
                 FZRANO =
2017-12-17 03:56 METAR KBTP 170856Z AUTO 20003KT 10SM CLR M03/M04 A3016 RMK AO2 SLP231 T10331044
                 51006 FZRANO =
2017-12-17 02:56 METAR KBTP 170756Z AUTO 18003KT 10SM CLR M05/M06 A3016 RMK AO2 SLP232 T10501061
                 FZRANO =
2017-12-17 01:56 METAR KBTP 170656Z AUTO 00000KT 7SM CLR M06/M06 A3016 RMK AO2 SLP233 T10561061
                 FZRANO =
2017-12-17 00:56 METAR KBTP 170556Z AUTO 00000KT 8SM CLR M06/M06 A3014 RMK AO2 SLP228 T10561061
                 10000 21061 51008 FZRANO =
2017-12-16 23:56 METAR KBTP 170456Z AUTO 00000KT 8SM CLR M06/M06 A3014 RMK AO2 SLP226 T10561061
                 400391056 FZRANO =
2017-12-16 22:56 METAR KBTP 170356Z AUTO 00000KT 10SM CLR M04/M04 A3013 RMK AO2 SLP223 T10391044
                 FZRANO =

Support USWX by starting your Amazon purchase here.